Time;durP1;ratioP1;P1;durP2;ratioP2;P2;SDS_P1;SDS_P2;PMS_P1;PMS_P2;Temp;Humidity;BMP_temperature;BMP_pressure;BME280_temperature;BME280_humidity;BME280_pressure;Samples;Min_cycle;Max_cycle;Signal;HPM_P1;HPM_P2
2023/08/20 00:00:42;;;;;;;23.02;20.05;;;;;;;;;;5072827;28;20047;-63
2023/08/20 00:03:10;;;;;;;22.88;20.45;;;;;;;;;;5073689;28;20043;-63
2023/08/20 00:05:36;;;;;;;27.15;21.25;;;;;;;;;;5077798;28;20025;-63
2023/08/20 00:08:02;;;;;;;25.92;23.45;;;;;;;;;;5086652;28;20047;-63
2023/08/20 00:10:27;;;;;;;25.98;23.20;;;;;;;;;;5077018;28;20029;-63
2023/08/20 00:12:53;;;;;;;21.92;19.63;;;;;;;;;;5081902;28;20392;-63
2023/08/20 00:15:19;;;;;;;23.53;21.23;;;;;;;;;;5080927;28;20029;-64
2023/08/20 00:17:45;;;;;;;26.52;23.80;;;;;;;;;;5074871;28;20287;-64
2023/08/20 00:20:12;;;;;;;25.27;22.15;;;;;;;;;;5074428;28;20479;-63
2023/08/20 00:22:42;;;;;;;21.83;19.85;;;;;;;;;;5074438;28;20036;-63
2023/08/20 00:25:07;;;;;;;22.50;20.35;;;;;;;;;;5074559;28;20024;-63
2023/08/20 00:27:33;;;;;;;22.90;20.70;;;;;;;;;;5074023;28;20021;-64
2023/08/20 00:29:58;;;;;;;24.50;21.90;;;;;;;;;;5075419;28;20012;-63
2023/08/20 00:32:24;;;;;;;21.17;19.23;;;;;;;;;;5093514;28;20274;-63
2023/08/20 00:34:49;;;;;;;19.63;17.52;;;;;;;;;;5093344;28;20031;-63
2023/08/20 00:37:14;;;;;;;22.47;18.60;;;;;;;;;;5087282;28;20462;-64
2023/08/20 00:39:40;;;;;;;21.40;19.27;;;;;;;;;;5093475;28;20300;-64
2023/08/20 00:42:05;;;;;;;24.55;22.15;;;;;;;;;;5092184;28;20016;-64
2023/08/20 00:44:31;;;;;;;25.35;21.52;;;;;;;;;;5092828;28;20016;-64
2023/08/20 00:46:56;;;;;;;27.50;22.48;;;;;;;;;;5080023;28;20071;-64
2023/08/20 00:49:22;;;;;;;23.58;20.75;;;;;;;;;;5094545;28;20032;-64
2023/08/20 00:51:47;;;;;;;24.10;21.70;;;;;;;;;;5093836;28;20115;-64
2023/08/20 00:54:12;;;;;;;24.58;21.92;;;;;;;;;;5094134;28;20492;-64
2023/08/20 00:56:38;;;;;;;23.42;20.88;;;;;;;;;;5088528;28;20217;-64
2023/08/20 00:59:04;;;;;;;26.58;23.70;;;;;;;;;;5074527;28;20027;-64
2023/08/20 01:01:29;;;;;;;28.25;25.35;;;;;;;;;;5081100;28;20020;-64
2023/08/20 01:03:54;;;;;;;27.60;24.27;;;;;;;;;;5078001;28;20020;-64
2023/08/20 01:06:22;;;;;;;35.30;30.53;;;;;;;;;;5092120;28;20032;-64
2023/08/20 01:08:53;;;;;;;37.72;31.23;;;;;;;;;;5093494;28;20285;-65
2023/08/20 01:11:25;;;;;;;34.10;30.65;;;;;;;;;;5079703;28;20430;-64
2023/08/20 01:13:53;;;;;;;32.50;29.02;;;;;;;;;;5092334;28;20038;-64
2023/08/20 01:16:19;;;;;;;30.27;27.17;;;;;;;;;;5091780;28;20019;-64
2023/08/20 01:18:44;;;;;;;32.23;28.77;;;;;;;;;;5091307;28;20036;-64
2023/08/20 01:21:28;;;;;;;35.83;30.75;;;;;;;;;;5092474;28;20281;-64
2023/08/20 01:24:01;;;;;;;31.88;28.10;;;;;;;;;;5089018;28;20060;-63
2023/08/20 01:26:40;;;;;;;30.45;27.23;;;;;;;;;;5083011;28;20532;-64
2023/08/20 01:29:06;;;;;;;31.15;27.30;;;;;;;;;;5093487;28;20031;-64
2023/08/20 01:31:32;;;;;;;28.60;25.65;;;;;;;;;;5092560;28;20069;-63
2023/08/20 01:33:57;;;;;;;27.70;24.88;;;;;;;;;;5092305;28;20039;-63
2023/08/20 01:36:23;;;;;;;30.27;26.20;;;;;;;;;;5087922;28;20021;-63
2023/08/20 01:38:48;;;;;;;27.20;23.67;;;;;;;;;;5072299;28;20024;-63
2023/08/20 01:41:13;;;;;;;24.67;22.10;;;;;;;;;;5072395;28;20104;-63
2023/08/20 01:43:38;;;;;;;24.37;21.33;;;;;;;;;;5082848;28;20715;-63
2023/08/20 01:46:04;;;;;;;27.07;21.97;;;;;;;;;;5089385;28;20313;-63
2023/08/20 01:48:29;;;;;;;23.77;21.25;;;;;;;;;;5090379;28;20289;-64
2023/08/20 01:50:54;;;;;;;24.17;21.58;;;;;;;;;;5088355;28;20102;-64
2023/08/20 01:53:20;;;;;;;23.13;20.40;;;;;;;;;;5091686;28;20031;-64
2023/08/20 01:55:45;;;;;;;22.95;20.15;;;;;;;;;;5088775;28;20020;-64
2023/08/20 01:58:10;;;;;;;20.05;17.95;;;;;;;;;;5091183;28;20035;-64
2023/08/20 02:00:35;;;;;;;23.33;18.47;;;;;;;;;;5088460;28;20020;-64
2023/08/20 02:03:01;;;;;;;20.70;18.63;;;;;;;;;;5081236;28;20274;-64
2023/08/20 02:05:26;;;;;;;22.40;17.00;;;;;;;;;;5088888;28;20267;-64
2023/08/20 02:07:51;;;;;;;29.03;17.67;;;;;;;;;;5089507;28;20277;-64
2023/08/20 02:10:16;;;;;;;19.38;17.40;;;;;;;;;;5072041;28;20390;-64
2023/08/20 02:12:42;;;;;;;20.98;16.88;;;;;;;;;;5054010;28;20037;-64
2023/08/20 02:15:07;;;;;;;21.03;16.57;;;;;;;;;;5057253;28;20546;-64
2023/08/20 02:17:35;;;;;;;18.13;15.65;;;;;;;;;;5052905;28;21193;-63
2023/08/20 02:20:00;;;;;;;20.77;16.95;;;;;;;;;;5053472;28;20630;-63
2023/08/20 02:22:26;;;;;;;18.60;15.10;;;;;;;;;;5083303;28;20024;-65
2023/08/20 02:24:51;;;;;;;18.65;15.82;;;;;;;;;;5085449;28;20708;-65
2023/08/20 02:27:16;;;;;;;19.13;16.75;;;;;;;;;;5080172;28;20131;-64
2023/08/20 02:29:41;;;;;;;21.27;16.73;;;;;;;;;;5085403;28;20035;-64
2023/08/20 02:32:07;;;;;;;22.48;15.45;;;;;;;;;;5085090;28;20546;-64
2023/08/20 02:34:32;;;;;;;24.27;16.73;;;;;;;;;;5085580;28;20020;-65
2023/08/20 02:36:57;;;;;;;24.83;15.98;;;;;;;;;;5081989;28;20282;-65
2023/08/20 02:39:24;;;;;;;15.93;13.87;;;;;;;;;;5083859;28;20020;-65
2023/08/20 02:41:49;;;;;;;23.20;15.60;;;;;;;;;;5072241;28;20267;-64
2023/08/20 02:44:14;;;;;;;18.13;14.57;;;;;;;;;;5083417;28;20031;-65
2023/08/20 02:46:40;;;;;;;24.10;16.23;;;;;;;;;;5090588;28;20289;-65
2023/08/20 02:49:05;;;;;;;19.23;13.40;;;;;;;;;;5088274;28;20695;-65
2023/08/20 02:51:31;;;;;;;18.33;15.38;;;;;;;;;;5090402;28;20034;-65
2023/08/20 02:53:56;;;;;;;15.00;12.73;;;;;;;;;;5089719;28;20081;-65
2023/08/20 02:56:21;;;;;;;20.33;14.60;;;;;;;;;;5089189;28;20268;-65
2023/08/20 02:58:46;;;;;;;17.47;12.90;;;;;;;;;;5088916;28;20262;-65
2023/08/20 03:01:19;;;;;;;18.67;13.88;;;;;;;;;;5088992;28;20349;-63
2023/08/20 03:03:44;;;;;;;14.77;12.98;;;;;;;;;;5088002;28;20051;-63
2023/08/20 03:06:09;;;;;;;28.10;13.83;;;;;;;;;;5089287;28;20459;-63
2023/08/20 03:08:34;;;;;;;23.70;14.77;;;;;;;;;;5088291;28;20636;-64
2023/08/20 03:11:00;;;;;;;20.60;13.30;;;;;;;;;;5076619;28;20258;-64
2023/08/20 03:13:25;;;;;;;15.60;13.37;;;;;;;;;;5080847;28;20309;-64
2023/08/20 03:15:50;;;;;;;20.47;12.80;;;;;;;;;;5072168;28;20266;-64
2023/08/20 03:18:15;;;;;;;15.33;13.23;;;;;;;;;;5080880;28;20282;-63
2023/08/20 03:20:40;;;;;;;14.27;11.50;;;;;;;;;;5072001;28;20274;-63
2023/08/20 03:23:06;;;;;;;13.33;11.37;;;;;;;;;;5079859;28;20270;-63
2023/08/20 03:25:31;;;;;;;15.10;12.20;;;;;;;;;;5070866;28;20349;-63
2023/08/20 03:27:56;;;;;;;17.33;11.90;;;;;;;;;;5078957;28;20752;-64
2023/08/20 03:30:22;;;;;;;20.65;11.57;;;;;;;;;;5071755;28;20025;-63
2023/08/20 03:32:47;;;;;;;15.93;11.70;;;;;;;;;;5078428;28;20534;-63
2023/08/20 03:35:12;;;;;;;22.13;11.90;;;;;;;;;;5071005;28;20095;-64
2023/08/20 03:37:37;;;;;;;12.17;10.27;;;;;;;;;;5074982;28;20339;-64
2023/08/20 03:40:04;;;;;;;13.25;10.55;;;;;;;;;;5074896;28;20289;-64
2023/08/20 03:42:30;;;;;;;14.30;11.18;;;;;;;;;;5088066;28;20354;-63
2023/08/20 03:44:55;;;;;;;12.80;10.65;;;;;;;;;;5081576;28;20032;-63
2023/08/20 03:47:20;;;;;;;14.90;10.57;;;;;;;;;;5078718;28;20024;-63
2023/08/20 03:49:47;;;;;;;14.30;10.13;;;;;;;;;;5074407;28;20785;-64
2023/08/20 03:52:13;;;;;;;14.88;10.95;;;;;;;;;;5055166;28;20290;-63
2023/08/20 03:54:38;;;;;;;12.07;10.83;;;;;;;;;;5039199;28;20071;-64
2023/08/20 03:57:03;;;;;;;13.88;9.60;;;;;;;;;;5045343;28;20309;-64
2023/08/20 03:59:29;;;;;;;15.75;9.73;;;;;;;;;;5048432;28;20024;-63
2023/08/20 04:01:54;;;;;;;13.43;10.20;;;;;;;;;;5046597;28;20090;-63
2023/08/20 04:04:21;;;;;;;17.43;10.73;;;;;;;;;;5078532;28;20459;-64
2023/08/20 04:06:46;;;;;;;16.80;10.45;;;;;;;;;;5071727;28;20862;-63
2023/08/20 04:09:12;;;;;;;17.92;9.60;;;;;;;;;;5081995;28;20116;-64
2023/08/20 04:11:37;;;;;;;12.90;9.38;;;;;;;;;;5083463;28;20024;-63
2023/08/20 04:14:02;;;;;;;9.48;8.40;;;;;;;;;;5089557;28;20031;-63
2023/08/20 04:16:29;;;;;;;19.77;10.10;;;;;;;;;;5089233;28;20020;-64
2023/08/20 04:18:54;;;;;;;13.85;11.30;;;;;;;;;;5089389;28;20106;-63
2023/08/20 04:21:19;;;;;;;12.48;11.18;;;;;;;;;;5087601;28;20584;-63
2023/08/20 04:23:45;;;;;;;13.00;9.80;;;;;;;;;;5080666;28;20078;-64
2023/08/20 04:26:10;;;;;;;13.23;10.02;;;;;;;;;;5082779;28;20308;-63
2023/08/20 04:28:35;;;;;;;11.90;10.17;;;;;;;;;;5078557;28;20098;-63
2023/08/20 04:31:00;;;;;;;18.50;10.97;;;;;;;;;;5083888;28;20824;-63
2023/08/20 04:33:26;;;;;;;13.52;10.30;;;;;;;;;;5081042;28;20295;-63
2023/08/20 04:35:51;;;;;;;13.98;9.90;;;;;;;;;;5085852;28;20051;-64
2023/08/20 04:38:17;;;;;;;13.50;10.68;;;;;;;;;;5076735;28;20012;-64
2023/08/20 04:40:42;;;;;;;12.13;9.40;;;;;;;;;;5086057;28;20069;-64
2023/08/20 04:43:07;;;;;;;13.43;10.60;;;;;;;;;;5059667;28;20054;-64
2023/08/20 04:45:32;;;;;;;12.00;9.35;;;;;;;;;;5085403;28;20266;-64
2023/08/20 04:47:58;;;;;;;15.80;11.32;;;;;;;;;;5082249;28;20085;-64
2023/08/20 04:50:23;;;;;;;15.63;10.53;;;;;;;;;;5088076;28;20099;-64
2023/08/20 04:52:48;;;;;;;13.23;10.13;;;;;;;;;;5090059;28;20298;-63
2023/08/20 04:55:15;;;;;;;11.20;9.20;;;;;;;;;;5088891;28;20273;-64
2023/08/20 04:57:40;;;;;;;14.13;10.88;;;;;;;;;;5084453;28;20028;-64
2023/08/20 05:00:06;;;;;;;12.18;10.35;;;;;;;;;;5088510;28;20032;-64
2023/08/20 05:02:32;;;;;;;12.00;9.93;;;;;;;;;;5085070;28;20028;-64
2023/08/20 05:04:57;;;;;;;12.18;8.77;;;;;;;;;;5072042;28;20073;-64
2023/08/20 05:07:22;;;;;;;12.13;10.20;;;;;;;;;;5084311;28;20020;-63
2023/08/20 05:09:49;;;;;;;12.15;10.38;;;;;;;;;;5085222;28;20453;-64
2023/08/20 05:12:14;;;;;;;13.27;10.20;;;;;;;;;;5054086;28;20016;-64
2023/08/20 05:14:40;;;;;;;15.48;10.52;;;;;;;;;;5031884;28;20230;-63
2023/08/20 05:17:05;;;;;;;12.63;10.27;;;;;;;;;;5034164;28;20019;-64
2023/08/20 05:19:30;;;;;;;14.37;9.53;;;;;;;;;;5069849;28;20024;-64
2023/08/20 05:21:58;;;;;;;16.42;11.05;;;;;;;;;;5076414;28;20325;-64
2023/08/20 05:24:24;;;;;;;13.02;10.45;;;;;;;;;;5090453;28;20402;-64
2023/08/20 05:27:05;;;;;;;15.18;10.90;;;;;;;;;;5088558;28;20037;-64
2023/08/20 05:29:30;;;;;;;12.23;10.52;;;;;;;;;;5088565;28;20065;-64
2023/08/20 05:31:56;;;;;;;12.68;11.10;;;;;;;;;;5082575;28;20025;-64
2023/08/20 05:34:21;;;;;;;19.03;12.33;;;;;;;;;;5081037;28;20024;-63
2023/08/20 05:36:46;;;;;;;12.67;11.03;;;;;;;;;;5082741;28;20663;-64
2023/08/20 05:39:11;;;;;;;13.38;10.80;;;;;;;;;;5078608;28;20616;-64
2023/08/20 05:41:37;;;;;;;17.70;12.70;;;;;;;;;;5074701;28;20016;-64
2023/08/20 05:44:02;;;;;;;13.37;12.00;;;;;;;;;;5073765;28;20328;-64
2023/08/20 05:46:27;;;;;;;16.17;12.32;;;;;;;;;;5075866;28;20294;-63
2023/08/20 05:48:52;;;;;;;14.10;11.47;;;;;;;;;;5064805;28;20025;-63
2023/08/20 05:51:18;;;;;;;14.00;12.47;;;;;;;;;;5078979;28;20302;-64
2023/08/20 05:53:43;;;;;;;15.20;11.60;;;;;;;;;;5079828;28;20299;-64
2023/08/20 05:56:09;;;;;;;11.93;10.17;;;;;;;;;;5086028;28;20274;-63
2023/08/20 05:58:34;;;;;;;11.57;10.32;;;;;;;;;;5082188;28;20636;-63
2023/08/20 06:00:59;;;;;;;13.63;10.27;;;;;;;;;;5087504;28;20024;-63
2023/08/20 06:03:24;;;;;;;16.70;10.77;;;;;;;;;;5085292;28;20020;-63
2023/08/20 06:05:50;;;;;;;14.10;12.15;;;;;;;;;;5091442;28;20101;-63
2023/08/20 06:08:15;;;;;;;16.77;13.00;;;;;;;;;;5091506;28;20532;-64
2023/08/20 06:10:40;;;;;;;16.93;15.17;;;;;;;;;;5090539;28;20687;-64
2023/08/20 06:13:05;;;;;;;19.27;15.30;;;;;;;;;;5084216;28;20286;-63
2023/08/20 06:15:31;;;;;;;13.80;12.23;;;;;;;;;;5072623;28;20021;-64
2023/08/20 06:17:56;;;;;;;17.55;15.48;;;;;;;;;;5082506;28;20741;-63
2023/08/20 06:20:21;;;;;;;16.20;14.47;;;;;;;;;;5048119;28;20067;-63
2023/08/20 06:22:46;;;;;;;17.17;14.37;;;;;;;;;;5029960;28;20390;-64
2023/08/20 06:25:12;;;;;;;18.67;14.20;;;;;;;;;;5038531;28;21292;-64
2023/08/20 06:27:37;;;;;;;19.13;14.20;;;;;;;;;;5034454;28;20086;-64
2023/08/20 06:30:02;;;;;;;21.07;15.30;;;;;;;;;;5039547;28;20801;-64
2023/08/20 06:32:27;;;;;;;17.33;14.30;;;;;;;;;;5041352;28;20274;-64
2023/08/20 06:34:53;;;;;;;19.67;15.43;;;;;;;;;;5069481;28;20139;-64
2023/08/20 06:37:18;;;;;;;21.17;15.47;;;;;;;;;;5068614;28;20289;-64
2023/08/20 06:39:43;;;;;;;23.60;16.47;;;;;;;;;;5043494;28;21169;-64
2023/08/20 06:42:08;;;;;;;17.33;14.23;;;;;;;;;;5035166;28;21057;-64
2023/08/20 06:44:35;;;;;;;15.93;14.23;;;;;;;;;;5056973;28;20016;-63
2023/08/20 06:47:00;;;;;;;18.67;14.65;;;;;;;;;;5090638;28;20289;-63
2023/08/20 06:49:25;;;;;;;18.23;15.10;;;;;;;;;;5060884;28;20012;-64
2023/08/20 06:51:51;;;;;;;16.08;14.23;;;;;;;;;;5027962;28;20024;-62
2023/08/20 06:54:16;;;;;;;21.77;15.38;;;;;;;;;;5030315;28;20032;-64
2023/08/20 06:56:41;;;;;;;20.40;15.20;;;;;;;;;;5042469;28;20062;-64
2023/08/20 06:59:07;;;;;;;16.35;14.65;;;;;;;;;;5039203;28;20791;-63
2023/08/20 07:01:32;;;;;;;21.35;16.42;;;;;;;;;;5032952;28;20023;-63
2023/08/20 07:03:57;;;;;;;20.87;14.67;;;;;;;;;;5042661;28;20032;-64
2023/08/20 07:06:23;;;;;;;18.33;14.30;;;;;;;;;;5043048;28;21289;-64
2023/08/20 07:08:49;;;;;;;33.30;15.07;;;;;;;;;;5042010;28;20125;-64
2023/08/20 07:11:14;;;;;;;17.77;13.82;;;;;;;;;;5041507;28;20781;-64
2023/08/20 07:13:39;;;;;;;24.02;12.82;;;;;;;;;;5043529;28;20031;-64
2023/08/20 07:16:04;;;;;;;16.07;12.57;;;;;;;;;;5049078;28;20098;-63
2023/08/20 07:18:30;;;;;;;14.35;11.05;;;;;;;;;;5078945;28;20365;-64
2023/08/20 07:20:55;;;;;;;15.68;11.18;;;;;;;;;;5076882;28;20445;-64
2023/08/20 07:23:21;;;;;;;15.07;10.85;;;;;;;;;;5087917;28;20028;-63
2023/08/20 07:25:46;;;;;;;13.57;9.38;;;;;;;;;;5080075;28;20028;-64
2023/08/20 07:28:12;;;;;;;14.13;8.75;;;;;;;;;;5083415;28;20036;-63
2023/08/20 07:30:37;;;;;;;15.27;9.23;;;;;;;;;;5074090;28;20032;-63
2023/08/20 07:33:03;;;;;;;14.05;7.97;;;;;;;;;;5074744;28;20032;-64
2023/08/20 07:35:28;;;;;;;14.88;7.38;;;;;;;;;;5033391;28;20885;-64
2023/08/20 07:37:53;;;;;;;10.95;6.82;;;;;;;;;;5026205;28;20040;-64
2023/08/20 07:40:19;;;;;;;9.15;5.60;;;;;;;;;;5038801;28;20028;-64
2023/08/20 07:42:44;;;;;;;14.70;6.70;;;;;;;;;;5028052;28;20052;-64
2023/08/20 07:45:10;;;;;;;11.80;6.93;;;;;;;;;;5039031;28;20113;-64
2023/08/20 07:47:36;;;;;;;14.48;6.80;;;;;;;;;;5033474;28;20292;-64
2023/08/20 07:50:01;;;;;;;10.43;6.30;;;;;;;;;;5032540;28;20024;-63
2023/08/20 07:52:26;;;;;;;9.25;5.30;;;;;;;;;;5050956;28;20499;-64
2023/08/20 07:54:51;;;;;;;11.40;5.70;;;;;;;;;;5075786;28;20035;-63
2023/08/20 07:57:17;;;;;;;8.10;5.70;;;;;;;;;;5073468;28;20306;-63
2023/08/20 07:59:42;;;;;;;8.50;5.17;;;;;;;;;;5076356;28;20753;-64
2023/08/20 08:02:07;;;;;;;12.23;6.10;;;;;;;;;;5083061;28;20293;-63
2023/08/20 08:04:33;;;;;;;10.67;6.27;;;;;;;;;;5079509;28;20343;-64
2023/08/20 08:06:58;;;;;;;12.70;5.80;;;;;;;;;;5046274;28;20448;-64
2023/08/20 08:09:27;;;;;;;15.93;6.95;;;;;;;;;;5031805;28;20576;-64
2023/08/20 08:11:53;;;;;;;14.02;6.25;;;;;;;;;;5039049;28;20032;-64
2023/08/20 08:14:18;;;;;;;14.00;8.25;;;;;;;;;;5030236;28;20028;-64
2023/08/20 08:16:44;;;;;;;12.23;7.22;;;;;;;;;;5040810;28;20569;-64
2023/08/20 08:19:10;;;;;;;13.45;8.00;;;;;;;;;;5040147;28;20028;-64
2023/08/20 08:21:35;;;;;;;11.23;7.75;;;;;;;;;;5072373;28;20535;-64
2023/08/20 08:24:00;;;;;;;12.70;6.73;;;;;;;;;;5070813;28;20112;-64
2023/08/20 08:26:25;;;;;;;10.67;5.87;;;;;;;;;;5069667;28;20301;-64
2023/08/20 08:28:51;;;;;;;11.07;6.50;;;;;;;;;;5077010;28;20283;-63
2023/08/20 08:31:16;;;;;;;12.17;6.73;;;;;;;;;;5094045;28;20294;-64
2023/08/20 08:33:41;;;;;;;12.00;6.87;;;;;;;;;;5093187;28;20290;-64
2023/08/20 08:36:06;;;;;;;11.03;6.30;;;;;;;;;;5090388;28;20280;-64
2023/08/20 08:38:32;;;;;;;10.77;6.30;;;;;;;;;;5082549;28;20633;-63
2023/08/20 08:40:57;;;;;;;14.03;6.67;;;;;;;;;;5091998;28;20288;-64
2023/08/20 08:43:22;;;;;;;12.40;7.95;;;;;;;;;;5066576;28;20439;-62
2023/08/20 08:45:48;;;;;;;11.15;6.43;;;;;;;;;;5048377;28;20044;-62
2023/08/20 08:48:14;;;;;;;10.30;6.80;;;;;;;;;;5069732;28;20490;-64
2023/08/20 08:50:39;;;;;;;14.38;6.53;;;;;;;;;;5080793;28;20025;-64
2023/08/20 08:53:05;;;;;;;11.30;6.28;;;;;;;;;;5087658;28;20024;-63
2023/08/20 08:55:30;;;;;;;8.43;5.20;;;;;;;;;;5089818;28;20495;-63
2023/08/20 08:57:55;;;;;;;13.60;5.90;;;;;;;;;;5046002;28;20032;-64
2023/08/20 09:00:21;;;;;;;10.05;7.05;;;;;;;;;;5033596;28;20063;-64
2023/08/20 09:02:46;;;;;;;10.13;6.95;;;;;;;;;;5044250;28;20046;-62
2023/08/20 09:05:13;;;;;;;10.70;7.72;;;;;;;;;;5079148;28;20073;-63
2023/08/20 09:07:42;;;;;;;12.90;7.20;;;;;;;;;;5079436;28;20032;-63
2023/08/20 09:10:07;;;;;;;8.48;6.43;;;;;;;;;;5082690;28;20036;-62
2023/08/20 09:12:34;;;;;;;11.55;8.02;;;;;;;;;;5082321;28;20481;-63
2023/08/20 09:15:00;;;;;;;10.93;7.25;;;;;;;;;;5081177;28;20028;-63
2023/08/20 09:17:27;;;;;;;10.25;6.97;;;;;;;;;;5073076;28;20024;-63
2023/08/20 09:19:53;;;;;;;10.88;7.55;;;;;;;;;;5080680;28;20048;-64
2023/08/20 09:22:19;;;;;;;10.27;7.88;;;;;;;;;;5081961;28;20032;-63
2023/08/20 09:24:45;;;;;;;13.45;7.65;;;;;;;;;;5078346;28;20553;-63
2023/08/20 09:27:13;;;;;;;10.82;7.07;;;;;;;;;;5088452;28;20039;-63
2023/08/20 09:29:48;;;;;;;13.85;8.05;;;;;;;;;;5079704;28;20024;-63
2023/08/20 09:32:20;;;;;;;10.40;7.85;;;;;;;;;;5089033;28;20028;-63
2023/08/20 09:34:47;;;;;;;11.98;6.70;;;;;;;;;;5074903;28;20524;-63
2023/08/20 09:37:13;;;;;;;13.48;6.13;;;;;;;;;;5081518;28;20021;-63
2023/08/20 09:39:38;;;;;;;14.45;7.88;;;;;;;;;;5089825;28;20035;-64
2023/08/20 09:42:07;;;;;;;8.05;6.15;;;;;;;;;;5092648;28;20027;-63
2023/08/20 09:44:36;;;;;;;12.70;8.13;;;;;;;;;;5089156;28;20021;-63
2023/08/20 09:47:02;;;;;;;9.43;7.45;;;;;;;;;;5089510;28;20549;-63
2023/08/20 09:49:29;;;;;;;6.97;5.63;;;;;;;;;;5083818;28;20031;-64
2023/08/20 09:51:56;;;;;;;10.30;6.13;;;;;;;;;;5085969;28;20024;-62
2023/08/20 09:54:25;;;;;;;10.18;5.75;;;;;;;;;;5084704;28;20404;-65
2023/08/20 09:56:53;;;;;;;10.35;5.95;;;;;;;;;;5091780;28;20093;-63
2023/08/20 09:59:19;;;;;;;6.47;4.68;;;;;;;;;;5084039;28;20116;-63
2023/08/20 10:01:44;;;;;;;9.45;4.85;;;;;;;;;;5086996;28;20103;-62
2023/08/20 10:04:10;;;;;;;6.80;4.47;;;;;;;;;;5083462;28;20028;-62
2023/08/20 10:06:36;;;;;;;8.40;4.93;;;;;;;;;;5087574;28;20082;-63
2023/08/20 10:09:03;;;;;;;5.57;3.90;;;;;;;;;;5088480;28;20047;-64
2023/08/20 10:11:29;;;;;;;6.00;4.18;;;;;;;;;;5089117;28;20032;-65
2023/08/20 10:13:54;;;;;;;8.13;3.42;;;;;;;;;;5091127;28;20012;-63
2023/08/20 10:16:21;;;;;;;6.63;3.55;;;;;;;;;;5089296;28;20028;-64
2023/08/20 10:18:47;;;;;;;5.90;3.65;;;;;;;;;;5081102;28;20470;-64
2023/08/20 10:21:12;;;;;;;8.82;4.10;;;;;;;;;;5073526;28;20032;-65
2023/08/20 10:23:40;;;;;;;7.43;3.63;;;;;;;;;;5077183;28;20031;-64
2023/08/20 10:26:07;;;;;;;5.18;3.17;;;;;;;;;;5082143;28;20036;-62
2023/08/20 10:28:32;;;;;;;5.65;3.88;;;;;;;;;;5084863;28;20027;-63
2023/08/20 10:31:11;;;;;;;6.13;3.27;;;;;;;;;;5080462;28;20028;-63
2023/08/20 10:33:57;;;;;;;5.93;3.15;;;;;;;;;;5080152;28;20396;-64
2023/08/20 10:36:26;;;;;;;8.07;3.78;;;;;;;;;;5074454;28;20087;-65
2023/08/20 10:38:55;;;;;;;6.63;3.38;;;;;;;;;;5079058;28;20412;-64
2023/08/20 10:41:24;;;;;;;5.32;3.50;;;;;;;;;;5067750;28;20020;-64
2023/08/20 10:43:49;;;;;;;6.00;3.60;;;;;;;;;;5073742;28;20063;-64
2023/08/20 10:46:16;;;;;;;6.00;3.75;;;;;;;;;;5081152;28;20530;-63
2023/08/20 10:48:42;;;;;;;9.75;3.42;;;;;;;;;;5079846;28;20436;-63
2023/08/20 10:51:13;;;;;;;11.50;3.17;;;;;;;;;;5078095;28;20043;-63
2023/08/20 10:53:39;;;;;;;7.68;3.10;;;;;;;;;;5079617;28;20505;-64
2023/08/20 10:56:15;;;;;;;6.90;3.50;;;;;;;;;;5066943;28;20020;-64
2023/08/20 10:58:44;;;;;;;5.45;2.60;;;;;;;;;;5067416;28;20154;-65
2023/08/20 11:01:17;;;;;;;5.85;3.38;;;;;;;;;;5082916;28;20098;-64
2023/08/20 11:03:44;;;;;;;6.40;3.07;;;;;;;;;;5086996;28;20454;-64
2023/08/20 11:06:10;;;;;;;4.63;2.80;;;;;;;;;;5087257;28;20101;-63
2023/08/20 11:08:35;;;;;;;4.97;2.42;;;;;;;;;;5087280;28;20133;-64
2023/08/20 11:11:01;;;;;;;6.13;2.70;;;;;;;;;;5085699;28;20055;-62
2023/08/20 11:13:26;;;;;;;6.68;2.65;;;;;;;;;;5084695;28;20024;-63
2023/08/20 11:15:52;;;;;;;4.70;2.30;;;;;;;;;;5085314;28;20073;-63
2023/08/20 11:18:17;;;;;;;9.30;2.53;;;;;;;;;;5084605;28;20753;-64
2023/08/20 11:20:43;;;;;;;6.95;2.90;;;;;;;;;;5084651;28;20024;-64
2023/08/20 11:23:10;;;;;;;5.45;2.85;;;;;;;;;;5085186;28;20032;-64
2023/08/20 11:25:40;;;;;;;5.80;3.00;;;;;;;;;;5086477;28;20028;-63
2023/08/20 11:28:05;;;;;;;3.92;2.28;;;;;;;;;;5082344;28;20073;-64
2023/08/20 11:30:32;;;;;;;6.20;2.43;;;;;;;;;;5085963;28;20455;-63
2023/08/20 11:32:57;;;;;;;4.63;2.33;;;;;;;;;;5085439;28;20617;-66
2023/08/20 11:35:22;;;;;;;6.32;2.80;;;;;;;;;;5086778;28;20016;-65
2023/08/20 11:37:48;;;;;;;3.80;2.17;;;;;;;;;;5083970;28;20024;-63
2023/08/20 11:40:13;;;;;;;5.18;2.13;;;;;;;;;;5084539;28;20269;-66
2023/08/20 11:42:38;;;;;;;4.03;1.97;;;;;;;;;;5086556;28;20025;-65
2023/08/20 11:45:04;;;;;;;6.10;2.37;;;;;;;;;;5085551;28;20728;-64
2023/08/20 11:47:29;;;;;;;4.05;1.95;;;;;;;;;;5081577;28;20039;-62
2023/08/20 11:50:07;;;;;;;3.37;1.73;;;;;;;;;;5086905;28;20035;-63
2023/08/20 11:52:33;;;;;;;2.83;1.50;;;;;;;;;;5083181;28;20051;-62
2023/08/20 11:54:59;;;;;;;3.67;1.60;;;;;;;;;;5087828;28;20435;-62
2023/08/20 11:57:24;;;;;;;3.58;1.63;;;;;;;;;;5083209;28;20028;-63
2023/08/20 11:59:50;;;;;;;4.47;1.87;;;;;;;;;;5086934;28;20144;-64
2023/08/20 12:02:15;;;;;;;3.67;1.47;;;;;;;;;;5090705;28;20319;-64
2023/08/20 12:04:40;;;;;;;3.23;1.40;;;;;;;;;;5088686;28;20273;-64
2023/08/20 12:07:09;;;;;;;4.47;1.80;;;;;;;;;;5087262;28;20497;-64
2023/08/20 12:09:35;;;;;;;2.92;1.08;;;;;;;;;;5088442;28;20324;-64
2023/08/20 12:12:02;;;;;;;3.63;1.42;;;;;;;;;;5087411;28;20031;-64
2023/08/20 12:14:27;;;;;;;2.65;1.25;;;;;;;;;;5087910;28;20181;-64
2023/08/20 12:16:55;;;;;;;5.77;1.83;;;;;;;;;;5089041;28;20482;-64
2023/08/20 12:19:21;;;;;;;3.03;1.20;;;;;;;;;;5088801;28;20357;-64
2023/08/20 12:21:46;;;;;;;3.05;1.50;;;;;;;;;;5087905;28;20450;-64
2023/08/20 12:24:12;;;;;;;3.40;1.53;;;;;;;;;;5086077;28;20027;-62
2023/08/20 12:26:37;;;;;;;2.80;1.40;;;;;;;;;;5087676;28;20302;-64
2023/08/20 12:29:03;;;;;;;2.13;1.13;;;;;;;;;;5088659;28;20016;-64
2023/08/20 12:31:28;;;;;;;2.90;1.30;;;;;;;;;;5090618;28;20020;-65
2023/08/20 12:33:53;;;;;;;5.87;2.00;;;;;;;;;;5087346;28;20039;-62
2023/08/20 12:36:18;;;;;;;3.13;1.67;;;;;;;;;;5088628;28;20039;-62
2023/08/20 12:38:44;;;;;;;5.70;1.40;;;;;;;;;;5087741;28;20096;-65
2023/08/20 12:41:09;;;;;;;4.55;1.67;;;;;;;;;;5087849;28;20025;-65
2023/08/20 12:43:34;;;;;;;5.93;2.00;;;;;;;;;;5090658;28;20038;-62
2023/08/20 12:45:59;;;;;;;3.53;1.27;;;;;;;;;;5085975;28;20028;-64
2023/08/20 12:48:25;;;;;;;2.73;1.57;;;;;;;;;;5089436;28;20028;-64
2023/08/20 12:50:50;;;;;;;4.80;2.20;;;;;;;;;;5087861;28;20035;-64
2023/08/20 12:53:15;;;;;;;2.80;1.60;;;;;;;;;;5087814;28;20043;-64
2023/08/20 12:55:40;;;;;;;7.30;1.93;;;;;;;;;;5085594;28;20289;-64
2023/08/20 12:58:06;;;;;;;5.18;2.35;;;;;;;;;;5089663;28;20040;-64
2023/08/20 13:00:31;;;;;;;3.23;1.83;;;;;;;;;;5083877;28;20082;-64
2023/08/20 13:02:57;;;;;;;4.10;1.85;;;;;;;;;;5078590;28;20276;-64
2023/08/20 13:05:23;;;;;;;4.60;2.15;;;;;;;;;;5077565;28;20046;-64
2023/08/20 13:07:48;;;;;;;4.28;1.92;;;;;;;;;;5071768;28;20047;-64
2023/08/20 13:10:13;;;;;;;3.45;1.70;;;;;;;;;;5075996;28;20140;-63
2023/08/20 13:12:42;;;;;;;6.05;1.77;;;;;;;;;;5072646;28;20040;-63
2023/08/20 13:15:07;;;;;;;2.72;1.35;;;;;;;;;;5074226;28;20387;-63
2023/08/20 13:17:33;;;;;;;5.28;2.17;;;;;;;;;;5074678;28;20028;-63
2023/08/20 13:19:58;;;;;;;4.68;2.28;;;;;;;;;;5062579;28;20040;-63
2023/08/20 13:22:23;;;;;;;3.63;1.40;;;;;;;;;;5087600;28;20048;-63
2023/08/20 13:24:48;;;;;;;4.70;2.00;;;;;;;;;;5088777;28;20838;-64
2023/08/20 13:27:14;;;;;;;5.03;2.10;;;;;;;;;;5077846;28;20290;-64
2023/08/20 13:29:40;;;;;;;5.37;1.77;;;;;;;;;;5081714;28;20034;-64
2023/08/20 13:32:06;;;;;;;3.60;1.75;;;;;;;;;;5076667;28;20302;-64
2023/08/20 13:34:31;;;;;;;3.20;1.58;;;;;;;;;;5070264;28;20596;-64
2023/08/20 13:36:56;;;;;;;3.40;1.47;;;;;;;;;;5075664;28;20044;-63
2023/08/20 13:39:22;;;;;;;3.17;1.73;;;;;;;;;;5063691;28;20046;-63
2023/08/20 13:41:49;;;;;;;5.07;1.63;;;;;;;;;;5061782;28;20597;-63
2023/08/20 13:44:14;;;;;;;4.15;1.27;;;;;;;;;;5068346;28;20060;-63
2023/08/20 13:46:39;;;;;;;3.80;1.45;;;;;;;;;;5040982;28;20035;-64
2023/08/20 13:49:05;;;;;;;3.73;1.80;;;;;;;;;;5070996;28;20119;-64
2023/08/20 13:51:30;;;;;;;3.50;1.83;;;;;;;;;;5090357;28;20743;-63
2023/08/20 13:53:55;;;;;;;4.13;1.70;;;;;;;;;;5074020;28;20058;-63
2023/08/20 13:56:20;;;;;;;3.88;1.60;;;;;;;;;;5069392;28;20027;-64
2023/08/20 13:58:45;;;;;;;5.20;1.90;;;;;;;;;;5070755;28;20406;-63
2023/08/20 14:01:13;;;;;;;3.80;1.53;;;;;;;;;;5072021;28;20024;-63
2023/08/20 14:03:38;;;;;;;3.35;1.85;;;;;;;;;;5075601;28;20298;-64
2023/08/20 14:06:03;;;;;;;2.97;1.30;;;;;;;;;;5071324;28;20781;-63
2023/08/20 14:08:29;;;;;;;2.90;1.37;;;;;;;;;;5072078;28;20028;-64
2023/08/20 14:10:54;;;;;;;2.27;1.33;;;;;;;;;;5072267;28;20266;-63
2023/08/20 14:13:19;;;;;;;4.33;2.03;;;;;;;;;;5063501;28;20285;-64
2023/08/20 14:15:44;;;;;;;2.53;1.47;;;;;;;;;;5049062;28;20108;-64
2023/08/20 14:18:09;;;;;;;3.83;1.67;;;;;;;;;;5069375;28;20056;-64
2023/08/20 14:20:35;;;;;;;5.30;2.00;;;;;;;;;;5086575;28;20771;-64